TimeMDT,TemperatureF,Dew PointF,Humidity,Sea Level PressureIn,VisibilityMPH,Wind Direction,Wind SpeedMPH,Gust SpeedMPH,PrecipitationIn,Events,Conditions,WindDirDegrees,DateUTC
12:53 AM,30.9,25.0,79,30.16,10.0,NW,5.8,-,N/A,,Clear,310,2013-04-04 06:53:00
1:53 AM,28.9,23.0,78,30.14,10.0,NW,6.9,-,N/A,,Clear,320,2013-04-04 07:53:00
2:53 AM,30.0,25.0,82,30.12,10.0,Calm,Calm,-,N/A,,Clear,0,2013-04-04 08:53:00
3:53 AM,28.9,25.0,85,30.12,10.0,WSW,9.2,-,N/A,,Clear,240,2013-04-04 09:53:00
4:53 AM,30.0,26.1,85,30.12,10.0,SW,9.2,-,N/A,,Clear,220,2013-04-04 10:53:00
5:53 AM,32.0,27.0,82,30.12,10.0,West,15.0,-,N/A,,Clear,270,2013-04-04 11:53:00
6:53 AM,33.1,28.0,82,30.14,10.0,WSW,11.5,-,N/A,,Clear,250,2013-04-04 12:53:00
7:53 AM,39.0,30.0,70,30.15,10.0,WSW,9.2,-,N/A,,Clear,250,2013-04-04 13:53:00
8:53 AM,46.9,30.9,54,30.14,10.0,West,9.2,-,N/A,,Clear,270,2013-04-04 14:53:00
9:53 AM,55.0,32.0,42,30.12,10.0,Calm,Calm,-,N/A,,Clear,0,2013-04-04 15:53:00
10:53 AM,62.1,30.9,31,30.10,10.0,Calm,Calm,-,N/A,,Clear,0,2013-04-04 16:53:00
11:53 AM,64.9,30.0,27,30.08,10.0,Calm,Calm,-,N/A,,Clear,0,2013-04-04 17:53:00
12:53 PM,66.9,27.0,22,30.06,10.0,West,4.6,-,N/A,,Clear,280,2013-04-04 18:53:00
1:53 PM,69.1,27.0,21,30.02,10.0,Variable,4.6,-,N/A,,Clear,0,2013-04-04 19:53:00
2:53 PM,71.1,25.0,18,29.99,10.0,ESE,9.2,-,N/A,,Clear,120,2013-04-04 20:53:00
3:53 PM,70.0,23.0,17,29.99,10.0,South,4.6,-,N/A,,Clear,180,2013-04-04 21:53:00
4:53 PM,71.1,21.9,16,29.97,10.0,East,6.9,-,N/A,,Clear,80,2013-04-04 22:53:00
5:53 PM,71.1,21.9,16,29.95,10.0,SE,8.1,-,N/A,,Clear,140,2013-04-04 23:53:00
6:53 PM,66.9,21.9,18,29.96,10.0,SE,9.2,-,N/A,,Clear,130,2013-04-05 00:53:00
7:53 PM,60.1,21.9,23,29.96,10.0,SE,9.2,-,N/A,,Clear,130,2013-04-05 01:53:00
8:53 PM,57.9,23.0,26,29.96,10.0,SE,11.5,-,N/A,,Clear,140,2013-04-05 02:53:00
9:53 PM,55.9,26.1,32,29.95,10.0,SSE,9.2,-,N/A,,Clear,150,2013-04-05 03:53:00
10:53 PM,52.0,27.0,38,29.94,10.0,SE,9.2,-,N/A,,Clear,130,2013-04-05 04:53:00
11:53 PM,50.0,27.0,41,29.93,10.0,ESE,10.4,-,N/A,,Clear,110,2013-04-05 05:53:00